M I D A S
Marine Information and Data Acquisition System
Tripno 730 of the Zeeleeuw from 2004-06-07 06:53:37 to 2004-06-07 15:48:18
Back to CruiseResearch ActivitiesStationsMapUnderway DataData graphs

EquipmentUnitsComment
TimeDGPSUTC
LatitudeDGPSDM.mWGS84
LongitudeDGPSDM.mWGS84
HeadingGyrodeg 
SOGDGPSknotsSpeed over ground
COGDGPSdegCourse over ground
DepthEcho soundermeters200 kHz
Missing or incorrect values are displayed as -999
Navigation data collected by the RV Zeeleeuw from 2004-06-07 06:53:37 to 2004-06-07 15:48:18
Time Latitude Longitude Heading SOG COG Depth
2004-06-07 06:54:40 51°13.597 2°56.092 115.5 1.2 286 7.3
2004-06-07 06:55:42 51°13.624 2°56.002 120.4 5 296 -999
2004-06-07 06:56:42 51°13.665 2°55.871 116.2 5.6 294 -999
2004-06-07 06:57:41 51°13.68 2°55.762 87.1 1.8 276 -999
2004-06-07 06:58:41 51°13.704 2°55.773 19.7 1.3 11 13.8
2004-06-07 06:59:42 51°13.691 2°55.768 1.8 0.8 337 -999
2004-06-07 07:00:40 51°13.745 2°55.713 330.4 5 324 10.2
2004-06-07 07:01:40 51°13.827 2°55.641 341.3 6.3 336 10.2
2004-06-07 07:02:41 51°13.938 2°55.564 344 7.6 338 10.5
2004-06-07 07:03:41 51°14.057 2°55.482 341.6 8 335 11.3
2004-06-07 07:04:41 51°14.19 2°55.37 333.6 9.8 328 11.6
2004-06-07 07:05:41 51°14.314 2°55.172 315.3 11.5 309 11.5
2004-06-07 07:06:40 51°14.448 2°54.921 319.3 13.4 311 10.6
2004-06-07 07:07:41 51°14.606 2°54.66 325.9 13.4 317 9.8
2004-06-07 07:08:40 51°14.77 2°54.43 327 13.4 319 9.9
2004-06-07 07:09:40 51°14.938 2°54.201 327 13.2 318 8.8
2004-06-07 07:10:41 51°15.103 2°53.954 324.4 13.5 317 9.3
2004-06-07 07:11:40 51°15.253 2°53.697 319.9 13.5 312 9.8
2004-06-07 07:12:41 51°15.41 2°53.434 321.9 13.4 314 10.4
2004-06-07 07:13:41 51°15.559 2°53.171 316.6 13.3 309 11.1
2004-06-07 07:14:41 51°15.685 2°52.88 303.7 13.4 294 11.7
2004-06-07 07:15:40 51°15.742 2°52.541 286.5 13.6 281 12.1
2004-06-07 07:16:42 51°15.751 2°52.172 267.2 13.6 263 12.4
2004-06-07 07:17:41 51°15.723 2°51.82 267.6 13.7 263 12.6
2004-06-07 07:18:41 51°15.702 2°51.46 268.7 13.6 264 12.8
2004-06-07 07:19:42 51°15.652 2°51.102 257.9 13.6 255 12.9
2004-06-07 07:20:42 51°15.595 2°50.752 259.1 13.6 256 12.9
2004-06-07 07:21:41 51°15.539 2°50.407 259.7 13.7 256 12.9
2004-06-07 07:22:39 51°15.491 2°50.065 262.7 13.7 259 12.9
2004-06-07 07:23:41 51°15.444 2°49.697 261.7 13.7 259 12.8
2004-06-07 07:24:42 51°15.398 2°49.335 262.6 13.7 259 12.9
2004-06-07 07:25:40 51°15.354 2°48.99 262.2 13.7 258 12.8
2004-06-07 07:26:42 51°15.306 2°48.621 262 13.8 258 12.6
2004-06-07 07:27:42 51°15.258 2°48.263 261.6 13.8 258 11.5
2004-06-07 07:28:41 51°15.212 2°47.912 262.3 13.8 258 10
2004-06-07 07:29:41 51°15.166 2°47.554 262.8 13.8 259 9.3
2004-06-07 07:30:41 51°15.119 2°47.195 262.4 13.9 259 9.1
2004-06-07 07:31:42 51°15.069 2°46.829 259.7 13.9 257 9.3
2004-06-07 07:32:42 51°15.018 2°46.467 260.5 14 257 9.7
2004-06-07 07:33:41 51°14.967 2°46.112 260.5 14 258 10.8
2004-06-07 07:34:41 51°14.914 2°45.751 259.4 14 256 11.7
2004-06-07 07:35:42 51°14.859 2°45.384 260.5 14 256 12.9
2004-06-07 07:36:41 51°14.807 2°45.028 260.7 14 257 13.8
2004-06-07 07:37:41 51°14.751 2°44.666 260.3 14.1 256 14.6
2004-06-07 07:38:40 51°14.695 2°44.309 260.9 14.1 256 15.3
2004-06-07 07:39:42 51°14.636 2°43.933 260.1 14.1 256 15.7
2004-06-07 07:40:42 51°14.579 2°43.569 260.5 14.1 256 16.3
2004-06-07 07:41:42 51°14.522 2°43.209 260.7 13.9 257 16.6
2004-06-07 07:42:42 51°14.468 2°42.848 259.8 14.1 256 16.9
2004-06-07 07:43:42 51°14.415 2°42.482 259.9 14.1 257 16.8
2004-06-07 07:44:41 51°14.363 2°42.122 260 14.2 257 16.8
2004-06-07 07:45:42 51°14.314 2°41.75 262.7 14.1 260 15
2004-06-07 07:46:42 51°14.271 2°41.383 262.5 14.1 260 14.3
2004-06-07 07:47:42 51°14.234 2°41.013 264.5 14.1 262 13.5
2004-06-07 07:48:41 51°14.201 2°40.647 264.6 14.1 262 13
2004-06-07 07:49:41 51°14.175 2°40.276 268.1 14 265 13.3
2004-06-07 07:50:42 51°14.151 2°39.899 266.9 14 263 13.1
2004-06-07 07:51:41 51°14.128 2°39.537 268 14.1 264 13.1
2004-06-07 07:52:42 51°14.102 2°39.16 267.8 14 264 12.1
2004-06-07 07:53:41 51°14.079 2°38.796 267 14 264 10.8
2004-06-07 07:54:42 51°14.051 2°38.417 262.5 14.1 259 14.7
2004-06-07 07:55:41 51°13.987 2°38.064 255.9 14.1 254 15.7
2004-06-07 07:56:41 51°13.922 2°37.704 255.1 14.2 253 17.3
2004-06-07 07:57:41 51°13.847 2°37.349 247.5 14.1 246 18.4
2004-06-07 07:58:42 51°13.741 2°37.009 243.2 14.1 243 18.8
2004-06-07 07:59:41 51°13.637 2°36.681 243.5 14.1 243 18.5
2004-06-07 08:00:42 51°13.529 2°36.341 243.7 14.1 243 17
2004-06-07 08:01:42 51°13.408 2°36.022 238.7 14.1 238 16.2
2004-06-07 08:02:42 51°13.274 2°35.719 233.2 14 233 16.2
2004-06-07 08:03:41 51°13.136 2°35.428 233.4 14 233 15.5
2004-06-07 08:04:39 51°13.001 2°35.142 234 13.9 233 14.6
2004-06-07 08:05:42 51°12.845 2°34.848 229.3 13.8 229 11.9
2004-06-07 08:06:42 51°12.693 2°34.573 229.3 13.9 229 11.7
2004-06-07 08:07:42 51°12.539 2°34.295 228.6 14 228 13.7
2004-06-07 08:08:42 51°12.378 2°34.026 223.6 14 224 15
2004-06-07 08:09:42 51°12.211 2°33.768 223.6 14 224 16.8
2004-06-07 08:10:42 51°12.048 2°33.525 220.8 11.3 222 18
2004-06-07 08:11:42 51°11.935 2°33.388 210.3 7 213 18.3
2004-06-07 08:12:42 51°11.858 2°33.339 184.1 3.7 199 17.9
2004-06-07 08:13:42 51°11.81 2°33.301 198.1 3 210 16.7
2004-06-07 08:14:42 51°11.772 2°33.26 201.8 2.6 216 16.3
2004-06-07 08:15:42 51°11.724 2°33.212 202.2 4 210 15.6
2004-06-07 08:16:42 51°11.66 2°33.153 203.7 4.6 210 15
2004-06-07 08:17:42 51°11.592 2°33.09 203.9 4.8 210 13.9
2004-06-07 08:18:42 51°11.524 2°33.025 207 4.8 214 11.9
2004-06-07 08:19:42 51°11.461 2°32.946 215.8 4.8 221 11
2004-06-07 08:20:42 51°11.4 2°32.864 213.1 4.7 219 11.1
2004-06-07 08:21:42 51°11.339 2°32.783 216.2 4.8 222 11.2
2004-06-07 08:22:42 51°11.281 2°32.693 221.2 4.9 226 11.4
2004-06-07 08:23:42 51°11.226 2°32.601 220.4 4.4 227 11.8
2004-06-07 08:24:42 51°11.184 2°32.526 220 3.5 230 12.5
2004-06-07 08:25:42 51°11.151 2°32.461 221.9 3 233 13
2004-06-07 08:26:42 51°11.124 2°32.402 223.6 2.7 236 13.3
2004-06-07 08:27:41 51°11.099 2°32.345 224.1 2.8 235 13.9
2004-06-07 08:28:41 51°11.07 2°32.286 216.1 2.8 229 14
2004-06-07 08:29:42 51°11.036 2°32.233 208 2.9 221 14.2
2004-06-07 08:30:42 51°10.999 2°32.185 204.2 2.9 217 14.2
2004-06-07 08:31:42 51°10.959 2°32.139 203.5 3 215 14.1
2004-06-07 08:32:41 51°10.919 2°32.094 204.7 3 216 14.1
2004-06-07 08:33:41 51°10.879 2°32.043 211.7 3.1 221 14.1
2004-06-07 08:34:40 51°10.842 2°31.988 215.3 3.1 224 14.1
2004-06-07 08:35:42 51°10.803 2°31.929 215.4 3.1 224 14.2
2004-06-07 08:36:42 51°10.767 2°31.874 214.6 3 223 14.2
2004-06-07 08:37:42 51°10.73 2°31.82 214.3 3 224 14.2
2004-06-07 08:38:41 51°10.695 2°31.765 214.4 3 223 14.4
2004-06-07 08:39:42 51°10.658 2°31.712 213.9 3 222 14.4
2004-06-07 08:40:41 51°10.622 2°31.66 214 3 222 14.4
2004-06-07 08:41:42 51°10.585 2°31.608 214.1 2.9 222 14.4
2004-06-07 08:42:42 51°10.549 2°31.556 214.5 2.9 223 14.1
2004-06-07 08:43:42 51°10.513 2°31.505 215.1 2.9 223 14.1
2004-06-07 08:44:42 51°10.478 2°31.453 215.5 2.9 223 14
2004-06-07 08:45:42 51°10.444 2°31.398 218.2 2.9 226 14.2
2004-06-07 08:46:43 51°10.41 2°31.341 219.2 2.9 227 14.2
2004-06-07 08:47:44 51°10.377 2°31.285 218.7 2.9 226 14.2
2004-06-07 08:48:42 51°10.346 2°31.232 218.4 2.8 227 14.3
2004-06-07 08:49:42 51°10.314 2°31.177 221.9 2.8 227 14.4
2004-06-07 08:50:43 51°10.283 2°31.119 225.9 2.8 231 14.4
2004-06-07 08:51:43 51°10.256 2°31.059 231.9 2.8 236 14.8
2004-06-07 08:52:42 51°10.233 2°30.995 242.1 2.8 244 14.9
2004-06-07 08:53:43 51°10.215 2°30.923 253.4 2.9 252 15.6
2004-06-07 08:54:42 51°10.203 2°30.849 262 2.8 257 16.3
2004-06-07 08:55:42 51°10.193 2°30.78 265.4 2.5 258 17.3
2004-06-07 08:56:43 51°10.185 2°30.719 266.2 2.2 257 18.2
2004-06-07 08:57:44 51°10.176 2°30.658 270.1 2.7 262 18.2
2004-06-07 08:58:42 51°10.198 2°30.572 331.9 4.2 317 18.5
2004-06-07 08:59:42 51°10.25 2°30.521 356.1 3.4 336 19.1
2004-06-07 09:00:42 51°10.299 2°30.499 14 2.8 352 19.2
2004-06-07 09:01:42 51°10.343 2°30.502 30 2.5 11 19.5
2004-06-07 09:02:43 51°10.383 2°30.53 42.2 2.7 29 19.6
2004-06-07 09:03:43 51°10.423 2°30.567 40.3 2.8 27 19.6
2004-06-07 09:04:43 51°10.464 2°30.603 47.5 2.7 36 19.8
2004-06-07 09:05:42 51°10.493 2°30.654 63 2.6 58 19.5
2004-06-07 09:06:43 51°10.512 2°30.719 70.6 2.7 70 19.2
2004-06-07 09:07:42 51°10.527 2°30.785 70.4 2.7 70 18.8
2004-06-07 09:08:42 51°10.543 2°30.852 67.1 2.7 67 18.6
2004-06-07 09:09:43 51°10.562 2°30.918 65.8 2.8 65 18.2
2004-06-07 09:10:47 51°10.583 2°30.99 65.1 2.8 64 17.7
2004-06-07 09:11:48 51°10.605 2°31.057 63.7 2.8 61 17.4
2004-06-07 09:12:48 51°10.627 2°31.123 63.5 2.9 61 17.3
2004-06-07 09:13:46 51°10.647 2°31.188 65 2.8 63 17.1
2004-06-07 09:14:48 51°10.67 2°31.256 61.6 2.8 57 17
2004-06-07 09:15:48 51°10.7 2°31.316 56.4 2.8 52 16.8
2004-06-07 09:16:48 51°10.731 2°31.373 55.1 2.9 49 16.6
2004-06-07 09:17:45 51°10.763 2°31.428 53.1 2.9 47 16.5
2004-06-07 09:18:49 51°10.798 2°31.486 51.7 2.8 44 16.4
2004-06-07 09:19:52 51°10.833 2°31.536 50 2.7 42 16.4
2004-06-07 09:20:52 51°10.866 2°31.583 50.8 2.6 42 16.2
2004-06-07 09:21:52 51°10.896 2°31.632 54.3 2.6 47 16
2004-06-07 09:22:49 51°10.924 2°31.682 57.7 2.6 52 16
2004-06-07 09:23:57 51°10.954 2°31.745 61.2 2.6 56 15.8
2004-06-07 09:25:02 51°10.981 2°31.806 59.6 2.6 52 15.7
2004-06-07 09:26:02 51°11.012 2°31.855 51.3 2.6 42 15.5
2004-06-07 09:27:00 51°11.046 2°31.895 42.2 2.7 29 15.8
2004-06-07 09:28:08 51°11.093 2°31.932 38.1 2.7 24 15.7
2004-06-07 09:29:07 51°11.131 2°31.962 43.8 2.6 33 16.5
2004-06-07 09:30:06 51°11.162 2°32.005 57.5 2.5 50 16.3
2004-06-07 09:31:12 51°11.187 2°32.064 63.2 2.4 58 15.6
2004-06-07 09:32:18 51°11.207 2°32.128 68.7 2.4 66 15.1
2004-06-07 09:33:18 51°11.218 2°32.173 70 1.6 68 14.7
2004-06-07 09:34:17 51°11.228 2°32.203 63.7 1.1 58 14.5
2004-06-07 09:35:17 51°11.237 2°32.22 54.8 0.7 40 14.4
2004-06-07 09:36:15 51°11.245 2°32.227 49 0.5 18 14.6
2004-06-07 09:37:17 51°11.253 2°32.229 45.2 0.4 356 14.7
2004-06-07 09:38:16 51°11.259 2°32.225 41.1 0.4 329 14.8
2004-06-07 09:39:17 51°11.264 2°32.217 36.4 0.4 304 15.7
2004-06-07 09:40:17 51°11.268 2°32.207 33 0.5 293 15.6
2004-06-07 09:41:17 51°11.271 2°32.194 31.5 0.5 304 16.2
2004-06-07 09:42:21 51°11.28 2°32.183 29.8 0.7 326 16.3
2004-06-07 09:43:22 51°11.291 2°32.173 26 0.9 333 17.2
2004-06-07 09:44:20 51°11.304 2°32.162 19.5 1 331 17.7
2004-06-07 09:45:28 51°11.323 2°32.14 3.6 1.3 317 18.1
2004-06-07 09:46:28 51°11.338 2°32.107 343.5 1.7 300 18.7
2004-06-07 09:47:28 51°11.349 2°32.06 322.9 2 285 19.1
2004-06-07 09:48:28 51°11.353 2°32.006 305.4 2 272 19.5
2004-06-07 09:49:28 51°11.351 2°31.955 298.3 1.9 263 19.5
2004-06-07 09:50:28 51°11.346 2°31.906 293.8 1.9 259 19.7
2004-06-07 09:51:28 51°11.367 2°31.808 326.7 4.6 308 19.7
2004-06-07 09:52:28 51°11.434 2°31.805 35.4 5.6 24 19.2
2004-06-07 09:53:26 51°11.56 2°31.959 54.4 11.4 49 17.9
2004-06-07 09:54:26 51°11.684 2°32.194 55.8 11.6 50 17
2004-06-07 09:55:27 51°11.801 2°32.446 60.1 11.6 54 16
2004-06-07 09:56:28 51°11.918 2°32.699 60.2 11.7 54 15.5
2004-06-07 09:57:27 51°12.03 2°32.948 59.5 11.7 54 14.7
2004-06-07 09:58:27 51°12.147 2°33.199 59.1 11.8 53 14.3
2004-06-07 09:59:28 51°12.266 2°33.456 59.3 11.9 54 12.9
2004-06-07 10:00:28 51°12.383 2°33.711 59.5 11.9 53 12.7
2004-06-07 10:01:26 51°12.497 2°33.957 59.1 12 53 12.3
2004-06-07 10:02:27 51°12.617 2°34.217 59.4 12 54 12.2
2004-06-07 10:03:28 51°12.737 2°34.476 59 11.9 54 12.2
2004-06-07 10:04:28 51°12.856 2°34.731 58.9 11.9 53 13.5
2004-06-07 10:05:28 51°12.974 2°34.982 59.4 11.8 54 15.2
2004-06-07 10:06:28 51°13.074 2°35.251 65.8 11.8 60 15.1
2004-06-07 10:07:28 51°13.171 2°35.52 65.7 11.7 60 15.4
2004-06-07 10:08:27 51°13.268 2°35.784 66 11.7 60 15.2
2004-06-07 10:09:26 51°13.365 2°36.045 65.7 11.6 59 15.3
2004-06-07 10:10:28 51°13.467 2°36.319 65 11.6 59 15.6
2004-06-07 10:11:27 51°13.565 2°36.577 65.2 11.6 58 17.1
2004-06-07 10:12:27 51°13.648 2°36.854 71.4 11.5 65 17.4
2004-06-07 10:13:28 51°13.732 2°37.134 70.4 11.6 64 17.1
2004-06-07 10:14:28 51°13.815 2°37.41 70.7 11.5 65 17.3
2004-06-07 10:15:27 51°13.894 2°37.683 71 11.6 66 16.8
2004-06-07 10:16:28 51°13.975 2°37.966 69.6 11.5 65 15
2004-06-07 10:17:27 51°14.029 2°38.257 78.6 11.7 76 15.3
2004-06-07 10:18:28 51°14.052 2°38.568 93.4 11.9 95 12.7
2004-06-07 10:19:27 51°13.933 2°38.807 149.7 12.9 158 11.7
2004-06-07 10:20:28 51°13.713 2°38.715 208.3 14.3 209 12.9
2004-06-07 10:21:28 51°13.502 2°38.532 208.7 14.5 209 13.2
2004-06-07 10:22:28 51°13.29 2°38.345 209.2 14.5 209 12.9
2004-06-07 10:23:27 51°13.085 2°38.147 212.2 14.6 211 12.6
2004-06-07 10:24:27 51°12.877 2°37.947 212.2 14.6 211 12.1
2004-06-07 10:25:25 51°12.675 2°37.755 211.9 14.7 210 11.5
2004-06-07 10:26:28 51°12.455 2°37.55 212.7 14.6 211 10.7
2004-06-07 10:27:28 51°12.25 2°37.338 216.2 14.6 213 10.2
2004-06-07 10:28:28 51°12.047 2°37.126 216.2 14.5 213 9.9
2004-06-07 10:29:28 51°11.835 2°36.951 207.9 14.4 205 9.8
2004-06-07 10:30:27 51°11.617 2°36.807 204.2 14.3 203 10.2
2004-06-07 10:31:27 51°11.395 2°36.659 203.4 14.5 203 10.6
2004-06-07 10:32:28 51°11.169 2°36.507 203.9 14.5 203 10.9
2004-06-07 10:33:28 51°10.948 2°36.358 204.1 14.5 203 10.8
2004-06-07 10:34:26 51°10.733 2°36.214 205.2 14.4 203 10.2
2004-06-07 10:35:33 51°10.486 2°36.05 205.1 14.4 203 9.6
2004-06-07 10:36:33 51°10.266 2°35.909 203.3 14.2 202 9.3
2004-06-07 10:37:32 51°10.05 2°35.76 206.5 14.4 206 14.4
2004-06-07 10:38:32 51°9.835 2°35.605 204.8 14.2 205 17.3
2004-06-07 10:39:32 51°9.618 2°35.44 204.3 14.6 205 17
2004-06-07 10:40:32 51°9.4 2°35.277 204.3 14.5 205 16.3
2004-06-07 10:41:33 51°9.179 2°35.11 203.8 14.4 205 15.1
2004-06-07 10:42:32 51°8.992 2°34.967 203 10 206 15.5
2004-06-07 10:43:32 51°8.877 2°34.899 179.3 5.3 194 15.4
2004-06-07 10:44:33 51°8.804 2°34.872 163.8 3.8 190 15.7
2004-06-07 10:45:33 51°8.773 2°34.839 165.7 1.8 260 15.6
2004-06-07 10:46:33 51°8.761 2°34.793 170.4 2.1 229 5.4
2004-06-07 10:47:33 51°8.739 2°34.75 184.2 2.1 230 15.8
2004-06-07 10:48:32 51°8.716 2°34.706 192.9 2.2 231 15.8
2004-06-07 10:49:32 51°8.693 2°34.659 201.5 2.2 232 15.7
2004-06-07 10:50:32 51°8.666 2°34.608 211.9 3 228 15.9
2004-06-07 10:51:32 51°8.631 2°34.532 238.6 3.8 238 15.8
2004-06-07 10:52:32 51°8.599 2°34.442 244 3.9 241 15.9
2004-06-07 10:53:34 51°8.567 2°34.349 242.9 3.8 241 16
2004-06-07 10:54:32 51°8.537 2°34.266 240.5 3.7 240 16
2004-06-07 10:55:33 51°8.506 2°34.183 239.9 3.5 239 16
2004-06-07 10:56:33 51°8.477 2°34.104 244.7 3.4 240 16
2004-06-07 10:57:33 51°8.45 2°34.025 248.2 3.3 241 16
2004-06-07 10:58:32 51°8.425 2°33.951 249 3.1 241 16
2004-06-07 10:59:32 51°8.4 2°33.879 247.5 3 241 15.9
2004-06-07 11:00:33 51°8.376 2°33.809 246 3 240 16
2004-06-07 11:01:33 51°8.351 2°33.742 244.8 2.9 240 16
2004-06-07 11:02:33 51°8.326 2°33.676 243.9 2.9 239 15.9
2004-06-07 11:03:33 51°8.301 2°33.612 243 2.8 238 15.9
2004-06-07 11:04:33 51°8.276 2°33.549 242.1 2.8 236 15.8
2004-06-07 11:05:33 51°8.25 2°33.488 241.5 2.8 237 15.6
2004-06-07 11:06:33 51°8.225 2°33.427 243.3 2.8 237 15.4
2004-06-07 11:07:34 51°8.2 2°33.365 244.7 2.8 237 15.5
2004-06-07 11:08:33 51°8.176 2°33.304 244.5 2.8 238 15.4
2004-06-07 11:09:33 51°8.152 2°33.241 246.8 2.8 239 15.3
2004-06-07 11:10:32 51°8.128 2°33.178 247.6 2.8 239 15.4
2004-06-07 11:11:33 51°8.103 2°33.113 247.5 2.9 239 15.3
2004-06-07 11:12:33 51°8.078 2°33.047 249.6 2.9 240 15.1
2004-06-07 11:13:33 51°8.054 2°32.98 249.5 2.9 240 15
2004-06-07 11:14:33 51°8.031 2°32.913 251.1 2.9 241 14.8
2004-06-07 11:15:33 51°8.007 2°32.846 250.1 2.9 240 14.7
2004-06-07 11:16:33 51°7.983 2°32.779 249.1 2.9 240 14.6
2004-06-07 11:17:33 51°7.959 2°32.713 249 2.9 240 14.5
2004-06-07 11:18:32 51°7.936 2°32.648 249.1 2.8 239 14.6
2004-06-07 11:19:33 51°7.912 2°32.582 249.9 2.8 241 14.5
2004-06-07 11:20:33 51°7.889 2°32.517 250.2 2.8 240 14.6
2004-06-07 11:21:32 51°7.866 2°32.452 250.1 2.8 241 14.4
2004-06-07 11:22:33 51°7.842 2°32.386 249.2 2.8 240 14.2
2004-06-07 11:23:34 51°7.818 2°32.321 249.3 2.8 240 14.2
2004-06-07 11:24:33 51°7.796 2°32.257 257.6 2.7 243 14
2004-06-07 11:25:33 51°7.777 2°32.19 264.7 3.1 249 13.7
2004-06-07 11:26:34 51°7.76 2°32.102 271.3 3.7 255 13.6
2004-06-07 11:27:33 51°7.75 2°32.004 287.6 3.7 265 13.8
2004-06-07 11:28:33 51°7.748 2°31.92 299.3 2.9 268 14.4
2004-06-07 11:29:33 51°7.748 2°31.854 308.9 2.4 268 15.2
2004-06-07 11:30:34 51°7.747 2°31.797 314 2 268 16
2004-06-07 11:31:32 51°7.746 2°31.749 317.8 1.8 265 16.7
2004-06-07 11:32:33 51°7.762 2°31.691 343 3.9 323 17.5
2004-06-07 11:33:34 51°7.817 2°31.696 51.5 2.6 44 18.4
2004-06-07 11:34:32 51°7.824 2°31.749 80.5 1.9 88 18.2
2004-06-07 11:35:33 51°7.825 2°31.805 81.5 2.4 88 17.8
2004-06-07 11:36:33 51°7.829 2°31.874 78.8 2.7 83 17.7
2004-06-07 11:37:34 51°7.836 2°31.949 78.2 2.9 83 17
2004-06-07 11:38:33 51°7.841 2°32.025 78.4 2.9 82 16.4
2004-06-07 11:39:33 51°7.852 2°32.094 66 2.5 67 16.1
2004-06-07 11:40:33 51°7.872 2°32.152 63.1 2.4 62 15.9
2004-06-07 11:41:33 51°7.889 2°32.208 69.3 2.4 72 16.1
2004-06-07 11:42:32 51°7.898 2°32.268 70.8 2.4 73 15.8
2004-06-07 11:43:34 51°7.914 2°32.326 64.1 2.3 63 15.8
2004-06-07 11:44:34 51°7.93 2°32.381 67.3 2.3 69 15.8
2004-06-07 11:45:34 51°7.943 2°32.438 68.5 2.3 69 15.9
2004-06-07 11:46:33 51°7.958 2°32.491 63.5 2.3 64 16.1
2004-06-07 11:47:34 51°7.976 2°32.544 63.1 2.2 63 15.9
2004-06-07 11:48:33 51°7.992 2°32.595 63.8 2.2 63 15.9
2004-06-07 11:49:33 51°8.008 2°32.644 63.8 2.1 63 16
2004-06-07 11:50:33 51°8.025 2°32.693 64.5 2.1 65 16.1
2004-06-07 11:51:34 51°8.042 2°32.745 64.4 2.2 62 15.9
2004-06-07 11:52:33 51°8.058 2°32.796 64.4 2.2 62 15.9
2004-06-07 11:53:34 51°8.075 2°32.848 63.8 2.2 62 16
2004-06-07 11:54:33 51°8.092 2°32.898 64.5 2.2 62 15.8
2004-06-07 11:55:33 51°8.109 2°32.948 62.3 2.1 59 16.1
2004-06-07 11:56:33 51°8.128 2°32.996 60.3 2.1 56 16.3
2004-06-07 11:57:33 51°8.148 2°33.042 60.5 2.1 57 16.1
2004-06-07 11:58:33 51°8.168 2°33.089 61 2.1 57 16.3
2004-06-07 11:59:34 51°8.187 2°33.137 60.5 2.1 57 16.3
2004-06-07 12:00:32 51°8.206 2°33.186 61.6 2.2 58 16.6
2004-06-07 12:01:33 51°8.225 2°33.236 61.6 2.2 58 16.6
2004-06-07 12:02:34 51°8.246 2°33.286 60.6 2.2 57 16.5
2004-06-07 12:03:33 51°8.264 2°33.333 61.9 2.2 59 16.5
2004-06-07 12:04:32 51°8.283 2°33.381 61 2.2 57 16.6
2004-06-07 12:05:33 51°8.304 2°33.434 61 2.2 58 16.6
2004-06-07 12:06:34 51°8.323 2°33.483 62.6 2.3 61 16.7
2004-06-07 12:07:34 51°8.341 2°33.537 62.8 2.4 62 16.6
2004-06-07 12:08:33 51°8.362 2°33.592 61.6 2.5 59 16.7
2004-06-07 12:09:34 51°8.383 2°33.648 60.6 2.5 55 16.7
2004-06-07 12:10:34 51°8.409 2°33.687 46.1 1.7 32 16.6
2004-06-07 12:11:32 51°8.43 2°33.694 29.7 1.2 356 16.8
2004-06-07 12:12:38 51°8.449 2°33.683 19.8 1.1 328 16.8
2004-06-07 12:13:38 51°8.463 2°33.665 13.4 1 312 16.9
2004-06-07 12:14:38 51°8.472 2°33.642 8.1 1.1 303 16.8
2004-06-07 12:15:38 51°8.481 2°33.615 352.4 1.2 293 16.8
2004-06-07 12:16:38 51°8.488 2°33.578 330.5 1.5 281 16.6
2004-06-07 12:17:38 51°8.489 2°33.533 305.7 1.8 269 16.3
2004-06-07 12:18:38 51°8.484 2°33.483 283.6 2 257 16.2
2004-06-07 12:19:38 51°8.473 2°33.431 261.8 2.1 246 16.1
2004-06-07 12:20:38 51°8.455 2°33.382 240.9 2.1 235 16.5
2004-06-07 12:21:39 51°8.432 2°33.34 219 2.1 224 16.5
2004-06-07 12:22:38 51°8.406 2°33.307 197.7 2 213 16.6
2004-06-07 12:23:38 51°8.376 2°33.284 175.9 2.1 198 16.5
2004-06-07 12:24:38 51°8.343 2°33.286 135.1 2 157 17.2
2004-06-07 12:25:44 51°8.327 2°33.336 80.3 2.3 87 17.2
2004-06-07 12:26:45 51°8.34 2°33.408 68.6 3.1 70 17.1
2004-06-07 12:27:44 51°8.356 2°33.481 69.2 2.9 70 17
2004-06-07 12:28:44 51°8.37 2°33.554 72.9 2.9 76 16.8
2004-06-07 12:29:44 51°8.382 2°33.625 68.5 2.7 70 17.1
2004-06-07 12:30:49 51°8.399 2°33.697 68.1 2.7 71 17
2004-06-07 12:31:48 51°8.414 2°33.761 67.1 2.5 69 17.2
2004-06-07 12:32:48 51°8.432 2°33.82 62.5 2.5 62 17.1
2004-06-07 12:33:49 51°8.451 2°33.878 63.1 2.4 62 17.2
2004-06-07 12:34:49 51°8.469 2°33.934 63.3 2.4 63 17.2
2004-06-07 12:35:48 51°8.486 2°33.988 64.2 2.3 64 17.1
2004-06-07 12:36:48 51°8.504 2°34.042 59.5 2.3 57 17.3
2004-06-07 12:37:49 51°8.527 2°34.093 57.8 2.4 55 17.4
2004-06-07 12:38:49 51°8.551 2°34.146 58.5 2.5 54 17.3
2004-06-07 12:39:49 51°8.575 2°34.2 59.5 2.5 57 17.4
2004-06-07 12:40:48 51°8.597 2°34.256 58.5 2.5 55 17.4
2004-06-07 12:41:49 51°8.622 2°34.312 59.3 2.6 56 17.5
2004-06-07 12:42:49 51°8.643 2°34.371 64.4 2.6 62 17.6
2004-06-07 12:43:48 51°8.661 2°34.432 65.9 2.6 64 17.6
2004-06-07 12:44:49 51°8.68 2°34.494 65.2 2.6 64 17.7
2004-06-07 12:45:49 51°8.699 2°34.556 64.7 2.6 63 17.6
2004-06-07 12:46:48 51°8.718 2°34.618 65.2 2.6 64 17.4
2004-06-07 12:47:48 51°8.738 2°34.68 63.8 2.6 62 17.2
2004-06-07 12:48:50 51°8.76 2°34.743 64.5 2.6 62 17.1
2004-06-07 12:49:51 51°8.78 2°34.806 64.5 2.7 63 17.2
2004-06-07 12:50:52 51°8.801 2°34.87 64.5 2.7 62 17.3
2004-06-07 12:51:52 51°8.821 2°34.933 64.3 2.7 63 17.4
2004-06-07 12:52:52 51°8.841 2°34.996 64.5 2.7 62 17.1
2004-06-07 12:53:52 51°8.861 2°35.061 64.3 2.8 63 17.2
2004-06-07 12:54:52 51°8.883 2°35.126 64.4 2.8 62 17.1
2004-06-07 12:55:52 51°8.904 2°35.191 64 2.8 63 17.2
2004-06-07 12:56:57 51°8.927 2°35.262 64.2 2.8 62 17.1
2004-06-07 12:57:57 51°8.95 2°35.328 64.4 2.8 62 17.3
2004-06-07 12:58:56 51°8.973 2°35.394 64.8 2.8 63 17.2
2004-06-07 12:59:57 51°8.994 2°35.463 66.3 2.8 65 17.2
2004-06-07 13:00:56 51°9.015 2°35.527 61.1 2.8 58 17.2
2004-06-07 13:01:57 51°9.043 2°35.589 55.6 2.8 52 17.2
2004-06-07 13:02:57 51°9.073 2°35.648 55.1 2.9 50 17.2
2004-06-07 13:03:57 51°9.101 2°35.693 44.9 2.1 38 17.2
2004-06-07 13:04:56 51°9.127 2°35.715 33.7 1.6 23 17.1
2004-06-07 13:05:56 51°9.15 2°35.728 29.4 1.9 20 17.1
2004-06-07 13:06:56 51°9.177 2°35.767 64.8 2.6 59 17.1
2004-06-07 13:07:56 51°9.202 2°35.834 60.5 3 56 17.2
2004-06-07 13:08:56 51°9.227 2°35.893 59.6 2.5 56 17.4
2004-06-07 13:09:57 51°9.247 2°35.949 66.2 2.3 65 17.1
2004-06-07 13:10:56 51°9.262 2°36.008 71.8 2.5 70 17.3
2004-06-07 13:11:56 51°9.277 2°36.073 71.1 2.6 69 17.1
2004-06-07 13:12:57 51°9.296 2°36.137 64.2 2.7 61 17.1
2004-06-07 13:13:57 51°9.321 2°36.199 61.6 2.8 58 17
2004-06-07 13:14:57 51°9.343 2°36.262 63.1 2.8 60 17
2004-06-07 13:16:05 51°9.369 2°36.335 64 2.7 62 17
2004-06-07 13:17:06 51°9.392 2°36.397 64.6 2.6 62 17.1
2004-06-07 13:18:06 51°9.412 2°36.458 64.7 2.6 62 16.9
2004-06-07 13:19:05 51°9.43 2°36.519 65 2.6 63 17
2004-06-07 13:20:06 51°9.449 2°36.582 64.8 2.6 63 17
2004-06-07 13:21:06 51°9.47 2°36.643 62 2.7 60 17.2
2004-06-07 13:22:06 51°9.492 2°36.702 58 2.7 55 17.2
2004-06-07 13:23:06 51°9.519 2°36.759 57.3 2.8 52 17.2
2004-06-07 13:24:06 51°9.545 2°36.817 58.4 2.8 55 17.3
2004-06-07 13:25:06 51°9.569 2°36.877 58.9 2.8 55 17.4
2004-06-07 13:26:06 51°9.595 2°36.938 59.6 2.9 55 17.4
2004-06-07 13:27:06 51°9.62 2°37 59.7 2.8 56 17.7
2004-06-07 13:28:06 51°9.645 2°37.061 59.4 2.9 54 17.6
2004-06-07 13:29:05 51°9.669 2°37.119 59.7 2.7 56 17.7
2004-06-07 13:30:06 51°9.693 2°37.178 59.5 2.6 56 17.9
2004-06-07 13:31:05 51°9.716 2°37.235 59.7 2.7 57 18
2004-06-07 13:32:05 51°9.74 2°37.295 59.6 2.8 57 18.2
2004-06-07 13:33:06 51°9.765 2°37.358 59.5 2.8 56 18.2
2004-06-07 13:34:06 51°9.79 2°37.42 59.2 2.8 57 18.3
2004-06-07 13:35:06 51°9.816 2°37.483 58.9 2.8 56 18.4
2004-06-07 13:36:05 51°9.843 2°37.542 55.1 2.9 52 18.7
2004-06-07 13:37:06 51°9.874 2°37.602 53.2 2.8 51 18.7
2004-06-07 13:38:06 51°9.903 2°37.66 53.3 2.7 52 18.7
2004-06-07 13:39:22 51°9.938 2°37.732 56.6 2.7 54 18.7
2004-06-07 13:40:22 51°9.963 2°37.789 56.6 2.7 54 18.8
2004-06-07 13:41:21 51°9.99 2°37.847 55.6 3 52 18.8
2004-06-07 13:42:23 51°10.024 2°37.914 50.9 3.9 49 18.9
2004-06-07 13:43:22 51°10.097 2°38.03 49.7 7.5 45 18.9
2004-06-07 13:44:22 51°10.172 2°38.143 42 4.9 38 18.4
2004-06-07 13:45:23 51°10.229 2°38.192 24.9 3.2 23 18.5
2004-06-07 13:46:23 51°10.273 2°38.217 18.5 2.5 19 18.8
2004-06-07 13:47:21 51°10.295 2°38.233 23.9 0.4 55 18.7
2004-06-07 13:48:22 51°10.296 2°38.24 28.7 0.4 53 18.8
2004-06-07 13:49:23 51°10.3 2°38.25 31.9 0.4 42 18.5
2004-06-07 13:50:32 51°10.305 2°38.263 34.8 0.5 53 18.5
2004-06-07 13:51:32 51°10.31 2°38.275 38.1 0.5 49 18.6
2004-06-07 13:52:32 51°10.315 2°38.286 42 0.6 66 18.6
2004-06-07 13:53:32 51°10.32 2°38.299 48.4 0.6 65 18.7
2004-06-07 13:54:47 51°10.326 2°38.316 58.8 0.7 65 18.6
2004-06-07 13:55:45 51°10.332 2°38.331 70.2 0.8 57 18.8
2004-06-07 13:56:46 51°10.339 2°38.348 79.2 0.8 59 18.7
2004-06-07 13:57:47 51°10.346 2°38.373 84 1.5 66 18.8
2004-06-07 13:58:44 51°10.357 2°38.413 78.1 1.9 65 18.9
2004-06-07 13:59:46 51°10.372 2°38.463 69.4 2.2 61 18.8
2004-06-07 14:00:46 51°10.392 2°38.514 58.1 2.3 54 18.9
2004-06-07 14:01:45 51°10.416 2°38.562 48.8 2.4 50 19.3
2004-06-07 14:02:46 51°10.443 2°38.61 42.9 2.4 48 18.9
2004-06-07 14:03:45 51°10.469 2°38.654 36.3 2.3 44 18.9
2004-06-07 14:04:47 51°10.499 2°38.697 28.7 2.3 41 19.1
2004-06-07 14:05:45 51°10.528 2°38.733 22.6 2.2 37 19.3
2004-06-07 14:06:47 51°10.559 2°38.769 15.6 2.2 34 19.4
2004-06-07 14:07:46 51°10.63 2°38.845 45.3 8.2 44 19.8
2004-06-07 14:08:46 51°10.757 2°39.09 60 13.8 58 19.8
2004-06-07 14:09:46 51°10.875 2°39.412 64.7 14.1 60 19.4
2004-06-07 14:10:45 51°10.989 2°39.73 64.1 14.2 60 18.9
2004-06-07 14:11:46 51°11.109 2°40.064 63.7 14.3 59 18.1
2004-06-07 14:12:45 51°11.225 2°40.386 62.8 14.3 59 17.8
2004-06-07 14:13:46 51°11.344 2°40.723 64.2 14.3 61 17.1
2004-06-07 14:14:46 51°11.461 2°41.053 63.6 14.3 60 17
2004-06-07 14:15:50 51°11.585 2°41.406 63.3 14.3 60 16.5
2004-06-07 14:16:50 51°11.702 2°41.733 63.8 14.2 60 16.1
2004-06-07 14:17:51 51°11.819 2°42.068 64.8 14.3 61 15.9
2004-06-07 14:18:50 51°11.933 2°42.394 64.5 14.4 61 14.9
2004-06-07 14:19:55 51°12.059 2°42.757 67 14.5 63 14.2
2004-06-07 14:20:55 51°12.173 2°43.097 66.7 14.6 62 14
2004-06-07 14:21:56 51°12.29 2°43.443 66 14.6 61 14
2004-06-07 14:22:56 51°12.405 2°43.785 66.3 14.6 62 14.3
2004-06-07 14:23:56 51°12.489 2°44.143 79.1 14.4 74 14.1
2004-06-07 14:24:56 51°12.56 2°44.51 78.6 14.5 73 13.3
2004-06-07 14:25:56 51°12.633 2°44.877 77.7 14.5 72 12
2004-06-07 14:26:56 51°12.703 2°45.245 78.7 14.5 73 10.8
2004-06-07 14:27:56 51°12.773 2°45.615 77.9 14.6 73 11.7
2004-06-07 14:28:56 51°12.845 2°45.987 78.2 14.7 73 12.9
2004-06-07 14:29:56 51°12.945 2°46.341 67.7 14.8 63 13.1
2004-06-07 14:30:56 51°13.059 2°46.686 68 14.6 63 12.9
2004-06-07 14:31:59 51°13.175 2°47.046 68.1 14.6 62 12.8
2004-06-07 14:33:00 51°13.287 2°47.393 67.9 14.5 63 12.7
2004-06-07 14:34:00 51°13.398 2°47.735 67.2 14.6 63 12.9
2004-06-07 14:35:00 51°13.509 2°48.079 67.5 14.6 63 12.8
2004-06-07 14:36:01 51°13.584 2°48.34 76.9 7.6 72 12.7
2004-06-07 14:37:05 51°13.601 2°48.503 101.3 4.8 87 12.4
2004-06-07 14:38:05 51°13.625 2°48.607 59.4 3.8 55 12.5
2004-06-07 14:39:10 51°13.648 2°48.656 47.4 1.6 56 12.5
2004-06-07 14:40:16 51°13.667 2°48.696 40.8 2.1 49 12.5
2004-06-07 14:41:16 51°13.702 2°48.745 29.7 3.2 36 12.5
2004-06-07 14:42:16 51°13.756 2°48.799 27.4 4.3 32 12.8
2004-06-07 14:43:15 51°13.816 2°48.869 37.7 4.6 39 13
2004-06-07 14:44:16 51°13.87 2°48.949 45.6 4.2 45 13.1
2004-06-07 14:45:16 51°13.916 2°49.027 49.5 3.8 48 13.1
2004-06-07 14:46:21 51°13.958 2°49.106 52.6 3.5 50 13.2
2004-06-07 14:47:20 51°13.992 2°49.173 54.8 3.2 53 13.3
2004-06-07 14:48:20 51°14.023 2°49.239 55.9 3.1 53 13.4
2004-06-07 14:49:21 51°14.053 2°49.306 57.1 3 55 13.3
2004-06-07 14:50:20 51°14.082 2°49.369 57 3 55 13.4
2004-06-07 14:51:21 51°14.111 2°49.433 55.4 3 53 13.5
2004-06-07 14:52:20 51°14.141 2°49.494 54.8 2.9 53 13.5
2004-06-07 14:53:21 51°14.171 2°49.557 55.7 3 53 13.7
2004-06-07 14:54:20 51°14.199 2°49.619 56.4 3 53 13.7
2004-06-07 14:55:21 51°14.229 2°49.681 56.2 2.9 54 13.8
2004-06-07 14:56:20 51°14.257 2°49.742 57.2 2.9 54 13.8
2004-06-07 14:57:21 51°14.285 2°49.805 57.5 2.9 55 13.8
2004-06-07 14:58:20 51°14.312 2°49.866 58 2.9 56 13.8
2004-06-07 14:59:20 51°14.339 2°49.93 57.3 2.9 56 13.8
2004-06-07 15:00:20 51°14.366 2°49.993 54.7 2.9 55 13.8
2004-06-07 15:01:20 51°14.395 2°50.056 53.2 2.9 53 13.9
2004-06-07 15:02:21 51°14.425 2°50.119 52.9 2.9 53 14
2004-06-07 15:03:20 51°14.454 2°50.181 54.5 2.9 54 14
2004-06-07 15:04:20 51°14.483 2°50.245 55 3 54 14.1
2004-06-07 15:05:21 51°14.512 2°50.31 55.8 3 55 14.1
2004-06-07 15:06:20 51°14.54 2°50.373 57 3 55 14.1
2004-06-07 15:07:20 51°14.568 2°50.438 56.3 3 54 14.3
2004-06-07 15:08:21 51°14.598 2°50.503 54.4 3 54 14.4
2004-06-07 15:09:20 51°14.627 2°50.567 58.2 3 55 14.4
2004-06-07 15:10:21 51°14.654 2°50.635 67.8 2.9 61 14.4
2004-06-07 15:11:21 51°14.676 2°50.703 77.3 2.9 63 14.5
2004-06-07 15:12:20 51°14.696 2°50.773 82 3.1 67 14.4
2004-06-07 15:13:20 51°14.715 2°50.85 82.3 3.2 66 14.4
2004-06-07 15:14:20 51°14.747 2°51.009 82.2 9.4 74 14.2
2004-06-07 15:15:21 51°14.793 2°51.233 71.9 6.9 63 14.1
2004-06-07 15:16:21 51°14.843 2°51.336 40.1 3.9 45 14.2
2004-06-07 15:17:20 51°14.887 2°51.396 25.4 3.3 38 14.4
2004-06-07 15:18:20 51°14.927 2°51.444 16.4 2.8 36 14.4
2004-06-07 15:19:20 51°14.964 2°51.484 8.6 2.5 35 14.5
2004-06-07 15:20:20 51°14.996 2°51.52 0.9 2.2 34 14.6
2004-06-07 15:21:20 51°15.025 2°51.552 355.6 2.1 35 14.7
2004-06-07 15:22:21 51°15.054 2°51.583 351.2 2.4 25 14.8
2004-06-07 15:23:21 51°15.093 2°51.597 319.1 2.1 6 14.9
2004-06-07 15:24:21 51°15.121 2°51.602 293.6 1.5 6 14.9
2004-06-07 15:25:20 51°15.141 2°51.604 275.9 1 1 15
2004-06-07 15:26:29 51°15.156 2°51.595 259.8 0.9 301 15
2004-06-07 15:27:29 51°15.158 2°51.57 248.6 1 259 15
2004-06-07 15:28:29 51°15.151 2°51.548 240 0.8 239 15.1
2004-06-07 15:29:29 51°15.143 2°51.532 234.3 0.8 217 15.1
2004-06-07 15:30:28 51°15.129 2°51.525 221.2 1 183 15
2004-06-07 15:31:28 51°15.111 2°51.531 207.1 1.3 157 14.9
2004-06-07 15:32:29 51°15.09 2°51.549 196.4 1.6 144 14.8
2004-06-07 15:33:29 51°15.067 2°51.581 184.6 2.1 138 14.8
2004-06-07 15:34:29 51°15.018 2°51.681 128.4 7.9 110 14.5
2004-06-07 15:35:29 51°15.001 2°51.972 100.5 12.8 91 14
2004-06-07 15:36:29 51°14.984 2°52.33 106.4 14.1 98 13.4
2004-06-07 15:37:29 51°14.95 2°52.702 107.5 14.3 98 13.1
2004-06-07 15:38:29 51°14.914 2°53.074 107.6 14.1 102 13
2004-06-07 15:39:29 51°14.824 2°53.411 123.1 13.8 114 13.3
2004-06-07 15:40:28 51°14.733 2°53.738 122.6 13.6 114 13.2
2004-06-07 15:41:29 51°14.653 2°54.093 120.5 14.1 110 14
2004-06-07 15:42:29 51°14.574 2°54.443 120.4 13.5 111 13.6
2004-06-07 15:43:29 51°14.489 2°54.757 126.5 12.9 113 14
2004-06-07 15:44:29 51°14.387 2°55.042 137.3 11.9 127 14
2004-06-07 15:45:29 51°14.264 2°55.261 136.1 10.1 133 14.4
2004-06-07 15:46:29 51°14.154 2°55.419 146.6 7.9 143 14.1
2004-06-07 15:47:29 51°14.054 2°55.505 161.8 6.5 159 14.3